createdAt,value
2018-04-15T00:00:45.541Z,73.28
2018-04-15T00:01:45.537Z,73.47
2018-04-15T00:02:45.533Z,73.28
2018-04-15T00:03:45.528Z,73.66
2018-04-15T00:04:45.528Z,73.66
2018-04-15T00:05:45.521Z,73.38
2018-04-15T00:06:45.518Z,73.38
2018-04-15T00:07:45.514Z,73.57
2018-04-15T00:08:45.516Z,73.47
2018-04-15T00:09:45.507Z,73.38
2018-04-15T00:10:45.504Z,73.47
2018-04-15T00:11:45.500Z,73.57
2018-04-15T00:12:45.497Z,73.66
2018-04-15T00:13:45.495Z,73.47
2018-04-15T00:14:45.496Z,73.47
2018-04-15T00:15:45.489Z,73.66
2018-04-15T00:16:45.486Z,73.47
2018-04-15T00:17:45.480Z,73.66
2018-04-15T00:18:45.479Z,73.47
2018-04-15T00:19:45.471Z,73.66
2018-04-15T00:20:45.465Z,73.19
2018-04-15T00:21:45.461Z,73.66
2018-04-15T00:22:45.458Z,73.47
2018-04-15T00:23:45.454Z,73.47
2018-04-15T00:24:45.451Z,73.47
2018-04-15T00:25:45.446Z,73.38
2018-04-15T00:26:45.449Z,73.47
2018-04-15T00:27:45.439Z,73.28
2018-04-15T00:28:45.436Z,73.47
2018-04-15T00:29:45.433Z,73.38
2018-04-15T00:30:45.428Z,73.28
2018-04-15T00:31:45.426Z,73.47
2018-04-15T00:32:45.419Z,73.95
2018-04-15T00:33:45.417Z,74.04
2018-04-15T00:34:45.412Z,73.95
2018-04-15T00:35:45.413Z,74.10
2018-04-15T00:36:45.404Z,73.76
2018-04-15T00:37:45.396Z,74.14
2018-04-15T00:38:45.396Z,73.95
2018-04-15T00:39:45.393Z,73.76
2018-04-15T00:40:45.385Z,73.95
2018-04-15T00:41:45.387Z,73.95
2018-04-15T00:42:45.381Z,73.76
2018-04-15T00:43:45.382Z,74.14
2018-04-15T00:44:45.371Z,74.04
2018-04-15T00:45:45.367Z,74.04
2018-04-15T00:46:45.371Z,73.85
2018-04-15T00:47:45.358Z,73.47
2018-04-15T00:48:45.361Z,73.76
2018-04-15T00:49:45.351Z,73.28
2018-04-15T00:50:45.344Z,73.76
2018-04-15T00:51:45.345Z,73.85
2018-04-15T00:52:45.339Z,73.95
2018-04-15T00:53:45.333Z,74.04
2018-04-15T00:54:45.331Z,73.57
2018-04-15T00:55:45.327Z,73.85
2018-04-15T00:56:45.320Z,74.14
2018-04-15T00:57:45.317Z,73.76
2018-04-15T00:58:45.314Z,73.76
2018-04-15T00:59:45.310Z,73.76
2018-04-15T01:00:45.304Z,73.66
2018-04-15T01:01:45.308Z,74.14
2018-04-15T01:02:45.297Z,73.95
2018-04-15T01:03:45.294Z,73.91
2018-04-15T01:04:45.289Z,73.95
2018-04-15T01:05:45.283Z,73.91
2018-04-15T01:06:45.281Z,73.95
2018-04-15T01:07:45.283Z,73.76
2018-04-15T01:08:45.274Z,73.95
2018-04-15T01:09:45.268Z,73.85
2018-04-15T01:10:45.263Z,73.72
2018-04-15T01:11:45.267Z,73.95
2018-04-15T01:12:45.257Z,73.66
2018-04-15T01:13:45.254Z,73.66
2018-04-15T01:14:45.250Z,73.63
2018-04-15T01:15:45.244Z,73.72
2018-04-15T01:16:45.240Z,74.33
2018-04-15T01:17:45.235Z,74.39
2018-04-15T01:18:45.233Z,74.39
2018-04-15T01:19:45.228Z,74.10
2018-04-15T01:20:45.221Z,74.29
2018-04-15T01:21:45.218Z,74.33
2018-04-15T01:22:45.217Z,74.14
2018-04-15T01:23:45.213Z,74.20
2018-04-15T01:24:45.201Z,74.10
2018-04-15T01:25:45.201Z,73.63
2018-04-15T01:26:45.200Z,74.39
2018-04-15T01:27:45.194Z,74.39
2018-04-15T01:28:45.189Z,74.39
2018-04-15T01:29:45.185Z,74.39
2018-04-15T01:30:45.187Z,74.20
2018-04-15T01:31:45.177Z,74.20
2018-04-15T01:32:45.169Z,74.29
2018-04-15T01:33:45.180Z,74.20
2018-04-15T01:34:45.163Z,74.01
2018-04-15T01:35:45.161Z,74.20
2018-04-15T01:36:45.165Z,74.58
2018-04-15T01:37:45.173Z,74.67
2018-04-15T01:38:45.178Z,74.39
2018-04-15T01:39:45.184Z,74.87
2018-04-15T01:40:45.192Z,74.58
2018-04-15T01:41:45.200Z,73.91
2018-04-15T01:42:45.203Z,73.91
2018-04-15T01:43:45.205Z,74.58
2018-04-15T01:44:45.212Z,74.67
2018-04-15T01:45:45.215Z,74.67
2018-04-15T01:46:45.221Z,74.20
2018-04-15T01:47:45.228Z,74.58
2018-04-15T01:48:45.231Z,74.58
2018-04-15T01:49:45.238Z,74.01
2018-04-15T01:50:45.239Z,74.39
2018-04-15T01:51:45.232Z,74.20
2018-04-15T01:52:45.237Z,74.10
2018-04-15T01:53:45.228Z,74.20
2018-04-15T01:54:45.170Z,74.20
2018-04-15T01:55:45.174Z,74.20
2018-04-15T01:56:45.179Z,74.10
2018-04-15T01:57:45.185Z,74.29
2018-04-15T01:58:45.190Z,74.39
2018-04-15T01:59:45.195Z,74.20
2018-04-15T02:00:45.057Z,74.48
2018-04-15T02:01:45.051Z,74.29
2018-04-15T02:02:45.046Z,74.39
2018-04-15T02:03:45.047Z,74.20
2018-04-15T02:04:45.041Z,74.20
2018-04-15T02:05:45.039Z,74.67
2018-04-15T02:06:45.032Z,74.39
2018-04-15T02:07:45.029Z,74.58
2018-04-15T02:08:45.033Z,74.58
2018-04-15T02:09:45.018Z,74.58
2018-04-15T02:10:45.014Z,74.58
2018-04-15T02:11:45.006Z,74.58
2018-04-15T02:12:45.006Z,74.04
2018-04-15T02:13:45.001Z,73.91
2018-04-15T02:14:44.998Z,73.66
2018-04-15T02:15:44.999Z,74.52
2018-04-15T02:16:44.992Z,74.29
2018-04-15T02:17:44.995Z,73.66
2018-04-15T02:18:44.981Z,74.20
2018-04-15T02:19:44.975Z,74.33
2018-04-15T02:20:44.978Z,74.33
2018-04-15T02:21:44.965Z,74.24
2018-04-15T02:22:44.972Z,73.47
2018-04-15T02:23:44.958Z,73.44
2018-04-15T02:24:44.956Z,74.20
2018-04-15T02:25:44.950Z,74.10
2018-04-15T02:26:44.947Z,73.82
2018-04-15T02:27:44.945Z,73.91
2018-04-15T02:28:44.940Z,73.76
2018-04-15T02:29:44.969Z,73.82
2018-04-15T02:30:44.935Z,74.29
2018-04-15T02:31:44.926Z,74.20
2018-04-15T02:32:44.923Z,74.29
2018-04-15T02:33:44.914Z,74.20
2018-04-15T02:34:44.912Z,74.29
2018-04-15T02:35:44.910Z,74.29
2018-04-15T02:36:44.906Z,74.20
2018-04-15T02:37:44.898Z,74.20
2018-04-15T02:38:44.894Z,74.33
2018-04-15T02:39:44.896Z,74.29
2018-04-15T02:40:44.889Z,73.91
2018-04-15T02:41:44.881Z,73.72
2018-04-15T02:42:44.873Z,74.01
2018-04-15T02:43:44.873Z,73.82
2018-04-15T02:44:44.875Z,74.39
2018-04-15T02:45:44.866Z,74.24
2018-04-15T02:46:44.865Z,73.91
2018-04-15T02:47:44.857Z,74.01
2018-04-15T02:48:44.849Z,74.04
2018-04-15T02:49:44.846Z,73.57
2018-04-15T02:50:44.844Z,73.53
2018-04-15T02:51:44.842Z,74.20
2018-04-15T02:52:44.832Z,74.20
2018-04-15T02:53:44.832Z,74.14
2018-04-15T02:54:44.831Z,74.33
2018-04-15T02:55:44.821Z,74.33
2018-04-15T02:56:44.816Z,74.20
2018-04-15T02:57:44.828Z,74.33
2018-04-15T02:58:44.809Z,74.20
2018-04-15T02:59:44.804Z,74.33
2018-04-15T03:00:44.802Z,74.20
2018-04-15T03:01:44.796Z,74.10
2018-04-15T03:02:44.798Z,74.33
2018-04-15T03:03:44.792Z,74.33
2018-04-15T03:04:44.787Z,74.24
2018-04-15T03:05:44.778Z,74.14
2018-04-15T03:06:44.773Z,74.24
2018-04-15T03:07:44.765Z,74.33
2018-04-15T03:08:44.776Z,74.33
2018-04-15T03:09:44.759Z,74.33
2018-04-15T03:10:44.761Z,74.33
2018-04-15T03:11:44.753Z,74.33
2018-04-15T03:12:44.752Z,74.52
2018-04-15T03:13:44.744Z,74.33
2018-04-15T03:14:44.741Z,74.43
2018-04-15T03:15:44.734Z,74.33
2018-04-15T03:16:44.724Z,74.33
2018-04-15T03:17:44.721Z,74.43
2018-04-15T03:18:44.724Z,74.33
2018-04-15T03:19:44.713Z,74.24
2018-04-15T03:20:44.708Z,73.66
2018-04-15T03:21:44.706Z,74.33
2018-04-15T03:22:44.713Z,74.52
2018-04-15T03:23:44.721Z,74.24
2018-04-15T03:24:44.723Z,74.24
2018-04-15T03:25:44.732Z,74.14
2018-04-15T03:26:44.739Z,74.33
2018-04-15T03:27:44.766Z,74.33
2018-04-15T03:28:44.740Z,74.43
2018-04-15T03:29:44.750Z,74.24
2018-04-15T03:30:44.757Z,74.33
2018-04-15T03:31:44.756Z,74.14
2018-04-15T03:32:44.760Z,74.24
2018-04-15T03:33:44.766Z,74.33
2018-04-15T03:34:44.772Z,74.33
2018-04-15T03:35:44.772Z,74.33
2018-04-15T03:36:44.783Z,74.14
2018-04-15T03:37:44.755Z,74.43
2018-04-15T03:38:44.759Z,74.24
2018-04-15T03:39:44.766Z,74.43
2018-04-15T03:40:44.732Z,74.24
2018-04-15T03:41:44.709Z,74.14
2018-04-15T03:42:44.716Z,74.33
2018-04-15T03:43:44.721Z,74.33
2018-04-15T03:44:44.727Z,74.33
2018-04-15T03:45:44.595Z,74.52
2018-04-15T03:46:44.592Z,74.33
2018-04-15T03:47:44.587Z,73.95
2018-04-15T03:48:44.582Z,74.52
2018-04-15T03:49:44.577Z,74.33
2018-04-15T03:50:44.577Z,74.33
2018-04-15T03:51:44.570Z,74.33
2018-04-15T03:52:44.565Z,74.33
2018-04-15T03:53:44.559Z,74.04
2018-04-15T03:54:44.569Z,74.43
2018-04-15T03:55:44.551Z,74.24
2018-04-15T03:56:44.558Z,74.33
2018-04-15T03:57:44.542Z,74.24
2018-04-15T03:58:44.541Z,74.24
2018-04-15T03:59:44.533Z,74.24
2018-04-15T04:00:44.529Z,74.24
2018-04-15T04:01:44.521Z,74.33
2018-04-15T04:02:44.516Z,74.33
2018-04-15T04:03:44.517Z,74.33
2018-04-15T04:04:44.511Z,74.33
2018-04-15T04:05:44.509Z,74.24
2018-04-15T04:06:44.505Z,74.33
2018-04-15T04:07:44.497Z,73.57
2018-04-15T04:08:44.495Z,73.76
2018-04-15T04:09:44.490Z,74.33
2018-04-15T04:10:44.486Z,74.33
2018-04-15T04:11:44.483Z,74.14
2018-04-15T04:12:44.480Z,74.24
2018-04-15T04:13:44.478Z,74.24
2018-04-15T04:14:44.468Z,73.47
2018-04-15T04:15:44.464Z,74.52
2018-04-15T04:16:44.458Z,74.24
2018-04-15T04:17:44.455Z,74.24
2018-04-15T04:18:44.456Z,73.66
2018-04-15T04:19:44.449Z,74.24
2018-04-15T04:20:44.444Z,74.24
2018-04-15T04:21:44.439Z,74.24
2018-04-15T04:22:44.434Z,74.33
2018-04-15T04:23:44.432Z,73.66
2018-04-15T04:24:44.424Z,74.33
2018-04-15T04:25:44.426Z,73.66
2018-04-15T04:26:44.424Z,74.33
2018-04-15T04:27:44.412Z,74.24
2018-04-15T04:28:44.408Z,74.52
2018-04-15T04:29:44.405Z,74.33
2018-04-15T04:30:44.398Z,74.43
2018-04-15T04:31:44.399Z,74.14
2018-04-15T04:32:44.390Z,73.76
2018-04-15T04:33:44.382Z,73.57
2018-04-15T04:34:44.381Z,74.33
2018-04-15T04:35:44.385Z,74.33
2018-04-15T04:36:44.376Z,74.14
2018-04-15T04:37:44.367Z,74.24
2018-04-15T04:38:44.363Z,74.24
2018-04-15T04:39:44.358Z,74.43
2018-04-15T04:40:44.355Z,74.04
2018-04-15T04:41:44.349Z,74.24
2018-04-15T04:42:44.344Z,74.24
2018-04-15T04:43:44.341Z,74.14
2018-04-15T04:44:44.343Z,74.04
2018-04-15T04:45:44.333Z,73.57
2018-04-15T04:46:44.327Z,74.33
2018-04-15T04:47:44.323Z,74.33
2018-04-15T04:48:44.314Z,74.24
2018-04-15T04:49:44.312Z,74.14
2018-04-15T04:50:44.310Z,74.33
2018-04-15T04:51:44.306Z,73.47
2018-04-15T04:52:44.302Z,74.24
2018-04-15T04:53:44.294Z,74.24
2018-04-15T04:54:44.291Z,74.14
2018-04-15T04:55:44.288Z,74.24
2018-04-15T04:56:44.286Z,73.47
2018-04-15T04:57:44.274Z,74.24
2018-04-15T04:58:44.275Z,73.66
2018-04-15T04:59:44.269Z,74.14
2018-04-15T05:00:44.266Z,74.24
2018-04-15T05:01:44.261Z,74.14
2018-04-15T05:02:44.261Z,74.24
2018-04-15T05:03:44.250Z,74.33
2018-04-15T05:04:44.247Z,74.33
2018-04-15T05:05:44.252Z,74.33
2018-04-15T05:06:44.259Z,74.43
2018-04-15T05:07:44.315Z,74.24
2018-04-15T05:08:44.271Z,74.33
2018-04-15T05:09:44.277Z,73.95
2018-04-15T05:10:44.282Z,74.43
2018-04-15T05:11:44.294Z,74.24
2018-04-15T05:12:44.294Z,74.33
2018-04-15T05:13:44.302Z,73.76
2018-04-15T05:14:44.305Z,74.33
2018-04-15T05:15:44.312Z,73.66
2018-04-15T05:16:44.317Z,74.14
2018-04-15T05:17:44.322Z,73.95
2018-04-15T05:18:44.330Z,74.52
2018-04-15T05:19:44.308Z,74.04
2018-04-15T05:20:44.310Z,74.37
2018-04-15T05:21:44.273Z,74.08
2018-04-15T05:22:44.278Z,74.18
2018-04-15T05:23:44.284Z,74.27
2018-04-15T05:24:44.289Z,74.37
2018-04-15T05:25:44.298Z,74.27
2018-04-15T05:26:44.298Z,74.27
2018-04-15T05:27:44.145Z,74.56
2018-04-15T05:28:44.140Z,74.18
2018-04-15T05:29:44.136Z,74.18
2018-04-15T05:30:44.136Z,74.46
2018-04-15T05:31:44.129Z,74.27
2018-04-15T05:32:44.124Z,74.37
2018-04-15T05:33:44.121Z,74.08
2018-04-15T05:34:44.112Z,74.27
2018-04-15T05:35:44.120Z,74.27
2018-04-15T05:36:44.108Z,74.37
2018-04-15T05:37:44.103Z,74.46
2018-04-15T05:38:44.100Z,73.99
2018-04-15T05:39:44.093Z,74.56
2018-04-15T05:40:44.090Z,74.60
2018-04-15T05:41:44.087Z,74.69
2018-04-15T05:42:44.083Z,74.69
2018-04-15T05:43:44.080Z,74.50
2018-04-15T05:44:44.076Z,74.75
2018-04-15T05:45:44.072Z,74.79
2018-04-15T05:46:44.065Z,75.16
2018-04-15T05:47:44.062Z,74.98
2018-04-15T05:48:44.056Z,74.79
2018-04-15T05:49:44.062Z,75.07
2018-04-15T05:50:44.052Z,74.79
2018-04-15T05:51:44.049Z,74.98
2018-04-15T05:52:44.043Z,74.60
2018-04-15T05:53:44.040Z,74.79
2018-04-15T05:54:44.036Z,75.11
2018-04-15T05:55:44.032Z,75.68
2018-04-15T05:56:44.028Z,75.68
2018-04-15T05:57:44.024Z,75.78
2018-04-15T05:58:44.020Z,75.49
2018-04-15T05:59:44.025Z,75.59
2018-04-15T06:00:44.015Z,75.01
2018-04-15T06:01:44.007Z,75.59
2018-04-15T06:02:44.007Z,75.78
2018-04-15T06:03:44.000Z,75.20
2018-04-15T06:04:43.997Z,74.92
2018-04-15T06:05:43.998Z,74.73
2018-04-15T06:06:43.991Z,75.30
2018-04-15T06:07:43.994Z,75.96
2018-04-15T06:08:43.985Z,75.96
2018-04-15T06:09:43.989Z,75.78
2018-04-15T06:10:43.983Z,75.68
2018-04-15T06:11:43.974Z,76.82
2018-04-15T06:12:43.975Z,76.67
2018-04-15T06:13:43.964Z,77.06
2018-04-15T06:14:43.962Z,78.72
2018-04-15T06:15:43.960Z,79.80
2018-04-15T06:16:43.957Z,79.61
2018-04-15T06:17:43.956Z,79.23
2018-04-15T06:18:43.957Z,79.43
2018-04-15T06:19:43.955Z,80.95
2018-04-15T06:20:43.942Z,80.38
2018-04-15T06:21:43.944Z,80.38
2018-04-15T06:22:43.941Z,79.90
2018-04-15T06:23:43.939Z,79.80
2018-04-15T06:24:43.935Z,79.28
2018-04-15T06:25:43.932Z,77.95
2018-04-15T06:26:43.930Z,77.95
2018-04-15T06:27:43.920Z,78.14
2018-04-15T06:28:43.920Z,78.72
2018-04-15T06:29:43.921Z,78.14
2018-04-15T06:30:43.925Z,78.05
2018-04-15T06:31:43.915Z,78.14
2018-04-15T06:32:43.910Z,77.47
2018-04-15T06:33:43.907Z,77.91
2018-04-15T06:34:43.903Z,77.57
2018-04-15T06:35:43.903Z,77.28
2018-04-15T06:36:43.973Z,77.19
2018-04-15T06:37:43.901Z,77.09
2018-04-15T06:38:43.896Z,78.81
2018-04-15T06:39:43.892Z,78.33
2018-04-15T06:40:43.894Z,78.43
2018-04-15T06:41:43.884Z,78.49
2018-04-15T06:42:43.887Z,77.95
2018-04-15T06:43:43.885Z,78.33
2018-04-15T06:44:43.879Z,79.19
2018-04-15T06:45:43.874Z,78.14
2018-04-15T06:46:43.923Z,79.57
2018-04-15T06:47:43.875Z,79.23
2018-04-15T06:48:43.869Z,80.28
2018-04-15T06:49:43.867Z,79.52
2018-04-15T06:50:43.867Z,80.76
2018-04-15T06:51:43.863Z,81.04
2018-04-15T06:52:43.863Z,80.66
2018-04-15T06:53:43.862Z,81.66
2018-04-15T06:54:43.855Z,81.18
2018-04-15T06:55:43.900Z,80.22
2018-04-15T06:56:43.847Z,81.85
2018-04-15T06:57:43.847Z,81.85
2018-04-15T06:58:43.849Z,82.08
2018-04-15T06:59:43.847Z,83.17
2018-04-15T07:00:43.843Z,82.22
2018-04-15T07:01:43.851Z,82.60
2018-04-15T07:02:43.859Z,83.94
2018-04-15T07:03:43.837Z,81.74
2018-04-15T07:04:43.865Z,81.70
2018-04-15T07:05:43.863Z,81.89
2018-04-15T07:06:43.862Z,81.60
2018-04-15T07:07:43.872Z,81.93
2018-04-15T07:08:43.876Z,82.41
2018-04-15T07:09:43.877Z,81.74
2018-04-15T07:10:43.877Z,82.31
2018-04-15T07:11:43.882Z,82.22
2018-04-15T07:12:43.883Z,82.41
2018-04-15T07:13:43.889Z,81.74
2018-04-15T07:14:43.902Z,81.45
2018-04-15T07:15:43.907Z,83.22
2018-04-15T07:16:43.910Z,82.70
2018-04-15T07:17:43.908Z,83.22
2018-04-15T07:18:43.911Z,82.31
2018-04-15T07:19:43.917Z,83.56
2018-04-15T07:20:43.920Z,82.03
2018-04-15T07:21:43.954Z,83.50
2018-04-15T07:22:43.942Z,83.65
2018-04-15T07:23:43.947Z,83.89
2018-04-15T07:24:43.949Z,83.31
2018-04-15T07:25:43.951Z,83.69
2018-04-15T07:26:43.956Z,84.12
2018-04-15T07:27:43.932Z,84.69
2018-04-15T07:28:43.939Z,84.41
2018-04-15T07:29:43.944Z,83.69
2018-04-15T07:30:43.952Z,84.17
2018-04-15T07:31:43.908Z,84.17
2018-04-15T07:32:43.913Z,83.54
2018-04-15T07:33:43.863Z,84.88
2018-04-15T07:34:43.807Z,84.17
2018-04-15T07:35:43.801Z,83.31
2018-04-15T07:36:43.801Z,83.36
2018-04-15T07:37:43.801Z,83.93
2018-04-15T07:38:43.803Z,83.73
2018-04-15T07:39:43.807Z,84.83
2018-04-15T07:40:43.799Z,84.92
2018-04-15T07:41:43.800Z,83.68
2018-04-15T07:42:43.804Z,83.78
2018-04-15T07:43:43.805Z,84.26
2018-04-15T07:44:43.806Z,84.16
2018-04-15T07:45:43.800Z,84.55
2018-04-15T07:46:43.805Z,84.35
2018-04-15T07:47:43.802Z,83.54
2018-04-15T07:48:43.807Z,84.35
2018-04-15T07:49:43.804Z,84.20
2018-04-15T07:50:43.809Z,83.72
2018-04-15T07:51:43.809Z,85.01
2018-04-15T07:52:43.804Z,84.72
2018-04-15T07:53:43.801Z,84.77
2018-04-15T07:54:43.840Z,84.63
2018-04-15T07:55:43.803Z,84.25
2018-04-15T07:56:43.803Z,84.78
2018-04-15T07:57:43.804Z,84.68
2018-04-15T07:58:43.806Z,83.92
2018-04-15T07:59:43.807Z,84.58
2018-04-15T08:00:43.810Z,85.50
2018-04-15T08:01:43.810Z,84.83
2018-04-15T08:02:43.813Z,84.45
2018-04-15T08:03:43.803Z,85.25
2018-04-15T08:04:43.813Z,84.68
2018-04-15T08:05:43.809Z,84.35
2018-04-15T08:06:43.808Z,84.88
2018-04-15T08:07:43.811Z,85.21
2018-04-15T08:08:43.807Z,84.64
2018-04-15T08:09:43.808Z,84.31
2018-04-15T08:10:43.814Z,84.69
2018-04-15T08:11:43.808Z,85.17
2018-04-15T08:12:43.810Z,85.08
2018-04-15T08:13:43.807Z,84.55
2018-04-15T08:14:43.813Z,85.50
2018-04-15T08:15:43.812Z,84.55
2018-04-15T08:16:43.819Z,85.60
2018-04-15T08:17:43.820Z,85.35
2018-04-15T08:18:43.814Z,85.74
2018-04-15T08:19:43.823Z,85.50
2018-04-15T08:20:43.815Z,84.83
2018-04-15T08:21:43.814Z,84.55
2018-04-15T08:22:43.811Z,86.27
2018-04-15T08:23:43.814Z,84.74
2018-04-15T08:24:43.811Z,85.16
2018-04-15T08:25:43.812Z,85.25
2018-04-15T08:26:43.813Z,85.16
2018-04-15T08:27:43.812Z,85.25
2018-04-15T08:28:43.809Z,85.35
2018-04-15T08:29:43.813Z,85.06
2018-04-15T08:30:43.819Z,84.97
2018-04-15T08:31:43.816Z,85.16
2018-04-15T08:32:43.813Z,85.45
2018-04-15T08:33:43.815Z,84.78
2018-04-15T08:34:43.814Z,85.64
2018-04-15T08:35:43.814Z,85.49
2018-04-15T08:36:43.811Z,84.34
2018-04-15T08:37:43.815Z,85.78
2018-04-15T08:38:43.812Z,85.30
2018-04-15T08:39:43.813Z,85.74
2018-04-15T08:40:43.817Z,85.45
2018-04-15T08:41:43.815Z,84.53
2018-04-15T08:42:43.812Z,85.39
2018-04-15T08:43:43.813Z,86.16
2018-04-15T08:44:43.812Z,85.72
2018-04-15T08:45:43.817Z,86.16
2018-04-15T08:46:43.815Z,85.78
2018-04-15T08:47:43.820Z,86.40
2018-04-15T08:48:43.815Z,86.49
2018-04-15T08:49:43.819Z,86.11
2018-04-15T08:50:43.819Z,86.78
2018-04-15T08:51:43.823Z,86.58
2018-04-15T08:52:43.816Z,85.72
2018-04-15T08:53:43.815Z,87.78
2018-04-15T08:54:43.816Z,87.21
2018-04-15T08:55:43.819Z,87.21
2018-04-15T08:56:43.816Z,87.11
2018-04-15T08:57:43.822Z,87.15
2018-04-15T08:58:43.818Z,87.35
2018-04-15T08:59:43.822Z,86.82
2018-04-15T09:00:43.865Z,88.07
2018-04-15T09:01:43.822Z,86.92
2018-04-15T09:02:43.822Z,87.21
2018-04-15T09:03:43.828Z,86.77
2018-04-15T09:04:43.831Z,87.21
2018-04-15T09:05:43.826Z,86.92
2018-04-15T09:06:43.828Z,87.88
2018-04-15T09:07:43.826Z,87.05
2018-04-15T09:08:43.826Z,87.35
2018-04-15T09:09:43.878Z,87.35
2018-04-15T09:10:43.829Z,87.82
2018-04-15T09:11:43.828Z,86.77
2018-04-15T09:12:43.827Z,87.63
2018-04-15T09:13:43.832Z,87.54
2018-04-15T09:14:43.833Z,86.62
2018-04-15T09:15:43.833Z,86.72
2018-04-15T09:16:43.835Z,85.42
2018-04-15T09:17:43.833Z,86.14
2018-04-15T09:18:43.841Z,84.70
2018-04-15T09:19:43.838Z,82.97
2018-04-15T09:20:43.834Z,84.70
2018-04-15T09:21:43.838Z,85.85
2018-04-15T09:22:43.837Z,85.75
2018-04-15T09:23:43.839Z,84.51
2018-04-15T09:24:43.845Z,85.37
2018-04-15T09:25:43.843Z,86.57
2018-04-15T09:26:43.846Z,86.18
2018-04-15T09:27:43.842Z,86.09
2018-04-15T09:28:43.845Z,83.20
2018-04-15T09:29:43.845Z,83.11
2018-04-15T09:30:43.850Z,83.59
2018-04-15T09:31:43.849Z,82.24
2018-04-15T09:32:43.851Z,84.07
2018-04-15T09:33:43.856Z,82.15
2018-04-15T09:34:43.856Z,81.96
2018-04-15T09:35:43.858Z,83.30
2018-04-15T09:36:43.854Z,83.87
2018-04-15T09:37:43.857Z,80.13
2018-04-15T09:38:43.860Z,79.65
2018-04-15T09:39:43.864Z,79.46
2018-04-15T09:40:43.874Z,80.32
2018-04-15T09:41:43.859Z,79.36
2018-04-15T09:42:43.864Z,79.65
2018-04-15T09:43:43.874Z,79.55
2018-04-15T09:44:43.866Z,80.04
2018-04-15T09:45:43.865Z,80.13
2018-04-15T09:46:43.865Z,79.50
2018-04-15T09:47:43.869Z,81.61
2018-04-15T09:48:43.870Z,80.94
2018-04-15T09:49:43.875Z,78.06
2018-04-15T09:50:43.875Z,75.65
2018-04-15T09:51:43.875Z,76.23
2018-04-15T09:52:43.879Z,75.46
2018-04-15T09:53:43.878Z,74.02
2018-04-15T09:54:43.881Z,74.30
2018-04-15T09:55:43.882Z,75.31
2018-04-15T09:56:43.885Z,73.96
2018-04-15T09:57:43.888Z,73.96
2018-04-15T09:58:43.888Z,70.98
2018-04-15T09:59:43.889Z,72.03
2018-04-15T10:00:43.892Z,70.50
2018-04-15T10:01:43.891Z,71.01
2018-04-15T10:02:43.897Z,71.20
2018-04-15T10:03:43.904Z,69.57
2018-04-15T10:04:43.897Z,70.28
2018-04-15T10:05:43.901Z,66.52
2018-04-15T10:06:43.905Z,67.68
2018-04-15T10:07:43.907Z,67.49
2018-04-15T10:08:43.906Z,68.16
2018-04-15T10:09:43.907Z,66.91
2018-04-15T10:10:43.913Z,66.91
2018-04-15T10:11:43.910Z,65.91
2018-04-15T10:12:43.913Z,69.02
2018-04-15T10:13:43.927Z,69.12
2018-04-15T10:14:43.917Z,68.84
2018-04-15T10:15:43.920Z,67.29
2018-04-15T10:16:43.918Z,65.08
2018-04-15T10:17:43.925Z,65.66
2018-04-15T10:18:43.928Z,62.67
2018-04-15T10:19:43.928Z,62.00
2018-04-15T10:20:43.931Z,63.82
2018-04-15T10:21:43.931Z,60.55
2018-04-15T10:22:43.935Z,58.72
2018-04-15T10:23:43.938Z,59.81
2018-04-15T10:24:43.939Z,58.47
2018-04-15T10:25:43.946Z,58.75
2018-04-15T10:26:43.954Z,58.88
2018-04-15T10:27:43.951Z,58.65
2018-04-15T10:28:43.947Z,60.20
2018-04-15T10:29:43.971Z,60.42
2018-04-15T10:30:43.949Z,59.65
2018-04-15T10:31:43.957Z,60.03
2018-04-15T10:32:44.001Z,59.27
2018-04-15T10:33:43.960Z,58.20
2018-04-15T10:34:43.964Z,56.95
2018-04-15T10:35:43.968Z,56.44
2018-04-15T10:36:43.975Z,56.82
2018-04-15T10:37:43.973Z,58.20
2018-04-15T10:38:44.012Z,58.78
2018-04-15T10:39:43.981Z,60.13
2018-04-15T10:40:43.989Z,59.94
2018-04-15T10:41:43.985Z,58.49
2018-04-15T10:42:43.986Z,57.53
2018-04-15T10:43:43.989Z,56.76
2018-04-15T10:44:43.993Z,58.49
2018-04-15T10:45:43.998Z,55.70
2018-04-15T10:46:44.004Z,57.34
2018-04-15T10:47:44.002Z,56.57
2018-04-15T10:48:44.009Z,56.98
2018-04-15T10:49:44.008Z,58.62
2018-04-15T10:50:44.010Z,58.14
2018-04-15T10:51:44.013Z,58.62
2018-04-15T10:52:44.014Z,58.81
2018-04-15T10:53:44.021Z,55.60
2018-04-15T10:54:44.064Z,56.09
2018-04-15T10:55:44.031Z,56.57
2018-04-15T10:56:44.030Z,57.27
2018-04-15T10:57:44.030Z,56.01
2018-04-15T10:58:44.032Z,57.56
2018-04-15T10:59:44.043Z,56.21
2018-04-15T11:00:44.040Z,55.54
2018-04-15T11:01:44.046Z,53.70
2018-04-15T11:02:44.050Z,54.40
2018-04-15T11:03:44.060Z,55.94
2018-04-15T11:04:44.057Z,55.66
2018-04-15T11:05:44.061Z,55.94
2018-04-15T11:06:44.059Z,54.28
2018-04-15T11:07:44.065Z,54.57
2018-04-15T11:08:44.083Z,55.24
2018-04-15T11:09:44.069Z,54.88
2018-04-15T11:10:44.073Z,54.40
2018-04-15T11:11:44.082Z,54.31
2018-04-15T11:12:44.078Z,53.92
2018-04-15T11:13:44.084Z,54.09
2018-04-15T11:14:44.092Z,55.46
2018-04-15T11:15:44.098Z,54.40
2018-04-15T11:16:44.093Z,52.37
2018-04-15T11:17:44.096Z,52.95
2018-04-15T11:18:44.097Z,51.58
2018-04-15T11:19:44.105Z,51.80
2018-04-15T11:20:44.105Z,51.70
2018-04-15T11:21:44.109Z,51.61
2018-04-15T11:22:44.113Z,51.51
2018-04-15T11:23:44.115Z,51.15
2018-04-15T11:24:44.115Z,51.15
2018-04-15T11:25:44.121Z,49.48
2018-04-15T11:26:44.121Z,48.13
2018-04-15T11:27:44.127Z,47.75
2018-04-15T11:28:44.132Z,46.49
2018-04-15T11:29:44.142Z,48.03
2018-04-15T11:30:44.145Z,46.20
2018-04-15T11:31:44.142Z,46.49
2018-04-15T11:32:44.143Z,46.97
2018-04-15T11:33:44.149Z,50.28
2018-04-15T11:34:44.154Z,50.18
2018-04-15T11:35:44.155Z,48.06
2018-04-15T11:36:44.213Z,48.16
2018-04-15T11:37:44.160Z,47.96
2018-04-15T11:38:44.166Z,47.87
2018-04-15T11:39:44.169Z,47.00
2018-04-15T11:40:44.174Z,46.42
2018-04-15T11:41:44.177Z,47.09
2018-04-15T11:42:44.182Z,46.81
2018-04-15T11:43:44.183Z,45.65
2018-04-15T11:44:44.190Z,46.90
2018-04-15T11:45:44.196Z,48.06
2018-04-15T11:46:44.193Z,48.44
2018-04-15T11:47:44.202Z,48.35
2018-04-15T11:48:44.205Z,48.25
2018-04-15T11:49:44.206Z,48.44
2018-04-15T11:50:44.210Z,49.44
2018-04-15T11:51:44.226Z,48.28
2018-04-15T11:52:44.217Z,46.92
2018-04-15T11:53:44.219Z,48.25
2018-04-15T11:54:44.224Z,46.54
2018-04-15T11:55:44.230Z,46.92
2018-04-15T11:56:44.230Z,46.83
2018-04-15T11:57:44.238Z,46.54
2018-04-15T11:58:44.237Z,46.15
2018-04-15T11:59:44.242Z,44.80
2018-04-15T12:00:44.248Z,44.51
2018-04-15T12:01:44.250Z,44.51
2018-04-15T12:02:44.257Z,46.73
2018-04-15T12:03:44.259Z,45.79
2018-04-15T12:04:44.263Z,44.82
2018-04-15T12:05:44.265Z,42.79
2018-04-15T12:06:44.270Z,43.85
2018-04-15T12:07:44.277Z,44.43
2018-04-15T12:08:44.286Z,42.58
2018-04-15T12:09:44.290Z,42.68
2018-04-15T12:10:44.294Z,42.68
2018-04-15T12:11:44.297Z,44.15
2018-04-15T12:12:44.297Z,44.63
2018-04-15T12:13:44.298Z,43.85
2018-04-15T12:14:44.303Z,43.54
2018-04-15T12:15:44.309Z,44.60
2018-04-15T12:16:44.311Z,45.00
2018-04-15T12:17:44.315Z,45.48
2018-04-15T12:18:44.322Z,44.03
2018-04-15T12:19:44.327Z,42.68
2018-04-15T12:20:44.329Z,44.03
2018-04-15T12:21:44.340Z,42.87
2018-04-15T12:22:44.342Z,43.37
2018-04-15T12:23:44.348Z,43.76
2018-04-15T12:24:44.345Z,42.99
2018-04-15T12:25:44.353Z,43.37
2018-04-15T12:26:44.382Z,44.05
2018-04-15T12:27:44.360Z,43.37
2018-04-15T12:28:44.387Z,44.73
2018-04-15T12:29:44.366Z,44.43
2018-04-15T12:30:44.370Z,43.76
2018-04-15T12:31:44.374Z,43.85
2018-04-15T12:32:44.378Z,42.89
2018-04-15T12:33:44.400Z,43.37
2018-04-15T12:34:44.390Z,44.34
2018-04-15T12:35:44.414Z,44.73
2018-04-15T12:36:44.394Z,44.63
2018-04-15T12:37:44.400Z,44.63
2018-04-15T12:38:44.406Z,44.05
2018-04-15T12:39:44.408Z,44.15
2018-04-15T12:40:44.416Z,43.85
2018-04-15T12:41:44.429Z,41.83
2018-04-15T12:42:44.425Z,42.62
2018-04-15T12:43:44.431Z,42.60
2018-04-15T12:44:44.431Z,42.50
2018-04-15T12:45:44.439Z,41.93
2018-04-15T12:46:44.439Z,42.24
2018-04-15T12:47:44.452Z,42.21
2018-04-15T12:48:44.451Z,41.44
2018-04-15T12:49:44.463Z,42.60
2018-04-15T12:50:44.464Z,42.99
2018-04-15T12:51:44.464Z,42.60
2018-04-15T12:52:44.470Z,42.50